Time,TemperatureF,DewpointF,PressureIn,WindDirection,WindDirectionDegrees,WindSpeedMPH,WindSpeedGustMPH,Humidity,HourlyPrecipIn,Conditions,Clouds,dailyrainin,SoftwareType,DateUTC
2013-01-11 00:00:00,24.4,21.2,30.64,NW,315,1.0,2.0,87,0.00,,,0.00,meteohub,2013-01-11 05:00:00,
2013-01-11 00:02:00,24.3,21.0,30.64,NW,315,0.0,2.0,87,0.00,,,0.00,meteohub,2013-01-11 05:02:00,
2013-01-11 00:03:00,24.3,21.0,30.64,NW,315,1.0,2.0,87,0.00,,,0.00,meteohub,2013-01-11 05:03:00,
2013-01-11 00:08:00,24.4,21.2,30.64,NW,315,0.0,2.0,87,0.00,,,0.00,meteohub,2013-01-11 05:08:00,
2013-01-11 00:13:00,24.1,20.8,30.64,NW,315,0.0,2.0,87,0.00,,,0.00,meteohub,2013-01-11 05:13:00,
2013-01-11 00:18:00,23.9,20.7,30.63,NW,315,0.0,1.0,87,0.00,,,0.00,meteohub,2013-01-11 05:18:00,
2013-01-11 00:23:00,23.5,20.3,30.63,NW,315,0.0,1.0,87,0.00,,,0.00,meteohub,2013-01-11 05:23:00,
2013-01-11 00:28:00,23.7,20.7,30.63,NW,315,0.0,1.0,88,0.00,,,0.00,meteohub,2013-01-11 05:28:00,
2013-01-11 00:33:00,23.7,20.7,30.63,NW,315,0.0,1.0,88,0.00,,,0.00,meteohub,2013-01-11 05:33:00,
2013-01-11 00:38:00,23.5,20.5,30.63,NW,315,0.0,1.0,88,0.00,,,0.00,meteohub,2013-01-11 05:38:00,
2013-01-11 00:43:00,24.1,21.4,30.63,NW,315,0.0,1.0,89,0.00,,,0.00,meteohub,2013-01-11 05:43:00,
2013-01-11 00:48:00,24.8,21.7,30.62,NW,315,0.0,1.0,88,0.00,,,0.00,meteohub,2013-01-11 05:48:00,
2013-01-11 00:53:00,25.0,21.7,30.62,NW,315,0.0,1.0,87,0.00,,,0.00,meteohub,2013-01-11 05:53:00,
2013-01-11 00:58:00,25.0,21.7,30.61,NW,315,0.0,1.0,87,0.00,,,0.00,meteohub,2013-01-11 05:58:00,
2013-01-11 01:03:00,24.8,21.2,30.61,NW,315,0.0,2.0,86,0.00,,,0.00,meteohub,2013-01-11 06:03:00,
2013-01-11 01:09:00,24.4,21.2,30.61,NW,315,0.0,2.0,87,0.00,,,0.00,meteohub,2013-01-11 06:09:00,
2013-01-11 01:14:00,24.4,20.8,30.59,NW,315,0.0,2.0,86,0.00,,,0.00,meteohub,2013-01-11 06:14:00,
2013-01-11 01:19:00,24.4,21.2,30.59,NW,315,0.0,2.0,87,0.00,,,0.00,meteohub,2013-01-11 06:19:00,
2013-01-11 01:24:00,24.4,21.2,30.59,NW,315,0.0,1.0,87,0.00,,,0.00,meteohub,2013-01-11 06:24:00,
2013-01-11 01:29:00,24.1,20.5,30.58,NW,315,0.0,1.0,86,0.00,,,0.00,meteohub,2013-01-11 06:29:00,
2013-01-11 01:34:00,23.5,19.9,30.58,NW,315,1.0,1.0,86,0.00,,,0.00,meteohub,2013-01-11 06:34:00,
2013-01-11 01:39:00,23.2,19.9,30.58,NW,315,1.0,1.0,87,0.00,,,0.00,meteohub,2013-01-11 06:39:00,
2013-01-11 01:44:00,23.2,20.5,30.58,NW,315,1.0,2.0,89,0.00,,,0.00,meteohub,2013-01-11 06:44:00,
2013-01-11 01:49:00,23.4,20.3,30.58,NW,315,0.0,2.0,88,0.00,,,0.00,meteohub,2013-01-11 06:49:00,
2013-01-11 01:54:00,23.5,20.5,30.57,NW,315,1.0,2.0,88,0.00,,,0.00,meteohub,2013-01-11 06:54:00,
2013-01-11 01:59:00,23.4,20.3,30.58,NW,315,1.0,1.0,88,0.00,,,0.00,meteohub,2013-01-11 06:59:00,
2013-01-11 02:04:00,23.2,20.1,30.58,NW,315,0.0,1.0,88,0.00,,,0.00,meteohub,2013-01-11 07:04:00,
2013-01-11 02:09:00,23.2,20.1,30.58,NW,315,0.0,2.0,88,0.00,,,0.00,meteohub,2013-01-11 07:09:00,
2013-01-11 02:14:00,22.8,19.8,30.57,NW,315,1.0,2.0,88,0.00,,,0.00,meteohub,2013-01-11 07:14:00,
2013-01-11 02:19:00,22.8,19.8,30.57,NW,315,0.0,2.0,88,0.00,,,0.00,meteohub,2013-01-11 07:19:00,
2013-01-11 02:24:00,22.6,19.6,30.57,NW,315,1.0,2.0,88,0.00,,,0.00,meteohub,2013-01-11 07:24:00,
2013-01-11 02:29:00,22.8,19.8,30.57,NW,315,1.0,2.0,88,0.00,,,0.00,meteohub,2013-01-11 07:29:00,
2013-01-11 02:34:00,22.8,19.8,30.56,NW,315,1.0,2.0,88,0.00,,,0.00,meteohub,2013-01-11 07:34:00,
2013-01-11 02:39:00,22.8,19.8,30.56,NW,315,0.0,2.0,88,0.00,,,0.00,meteohub,2013-01-11 07:39:00,
2013-01-11 02:44:00,23.2,20.1,30.56,NW,315,1.0,2.0,88,0.00,,,0.00,meteohub,2013-01-11 07:44:00,
2013-01-11 02:49:00,23.2,20.1,30.56,NW,315,0.0,1.0,88,0.00,,,0.00,meteohub,2013-01-11 07:49:00,
2013-01-11 02:54:00,23.4,20.3,30.56,NW,315,1.0,1.0,88,0.00,,,0.00,meteohub,2013-01-11 07:54:00,
2013-01-11 02:59:00,23.4,20.3,30.56,NW,315,1.0,2.0,88,0.00,,,0.00,meteohub,2013-01-11 07:59:00,
2013-01-11 03:04:00,23.4,20.1,30.56,NW,315,0.0,2.0,87,0.00,,,0.00,meteohub,2013-01-11 08:04:00,
2013-01-11 03:09:00,23.5,20.5,30.56,NW,315,0.0,2.0,88,0.00,,,0.00,meteohub,2013-01-11 08:09:00,
2013-01-11 03:14:00,23.7,20.7,30.56,NW,315,0.0,2.0,88,0.00,,,0.00,meteohub,2013-01-11 08:14:00,
2013-01-11 03:19:00,23.9,20.8,30.56,NW,315,0.0,0.0,88,0.00,,,0.00,meteohub,2013-01-11 08:19:00,
2013-01-11 03:24:00,23.9,20.7,30.56,NW,315,0.0,0.0,87,0.00,,,0.00,meteohub,2013-01-11 08:24:00,
2013-01-11 03:29:00,23.9,20.8,30.56,NW,315,0.0,0.0,88,0.00,,,0.00,meteohub,2013-01-11 08:29:00,
2013-01-11 03:34:00,24.1,21.0,30.56,NW,315,0.0,0.0,88,0.00,,,0.00,meteohub,2013-01-11 08:34:00,
2013-01-11 03:39:00,23.7,20.5,30.56,NW,315,0.0,0.0,87,0.00,,,0.00,meteohub,2013-01-11 08:39:00,
2013-01-11 03:44:00,23.7,21.0,30.56,NW,315,1.0,0.0,89,0.00,,,0.00,meteohub,2013-01-11 08:44:00,
2013-01-11 03:49:00,24.1,21.4,30.55,NW,315,0.0,2.0,89,0.00,,,0.00,meteohub,2013-01-11 08:49:00,
2013-01-11 03:54:00,24.4,21.7,30.55,NW,315,0.0,2.0,89,0.00,,,0.00,meteohub,2013-01-11 08:54:00,
2013-01-11 03:59:00,24.4,21.4,30.54,NW,315,1.0,2.0,88,0.00,,,0.00,meteohub,2013-01-11 08:59:00,
2013-01-11 04:04:00,24.3,21.0,30.54,NW,315,1.0,1.0,87,0.00,,,0.00,meteohub,2013-01-11 09:04:00,
2013-01-11 04:09:00,23.9,20.8,30.54,NW,315,1.0,2.0,88,0.00,,,0.00,meteohub,2013-01-11 09:09:00,
2013-01-11 04:14:00,23.7,20.7,30.54,NW,315,0.0,2.0,88,0.00,,,0.00,meteohub,2013-01-11 09:14:00,
2013-01-11 04:19:00,23.7,20.7,30.54,NW,315,0.0,2.0,88,0.00,,,0.00,meteohub,2013-01-11 09:19:00,
2013-01-11 04:24:00,24.3,21.6,30.54,NW,315,0.0,2.0,89,0.00,,,0.00,meteohub,2013-01-11 09:24:00,
2013-01-11 04:29:00,24.4,21.4,30.54,NW,315,0.0,1.0,88,0.00,,,0.00,meteohub,2013-01-11 09:29:00,
2013-01-11 04:34:00,24.6,21.4,30.55,NW,315,0.0,1.0,87,0.00,,,0.00,meteohub,2013-01-11 09:34:00,
2013-01-11 04:39:00,24.8,21.2,30.55,NW,315,0.0,1.0,86,0.00,,,0.00,meteohub,2013-01-11 09:39:00,
2013-01-11 04:44:00,25.2,21.0,30.55,NW,315,0.0,2.0,84,0.00,,,0.00,meteohub,2013-01-11 09:44:00,
2013-01-11 04:49:00,25.5,20.8,30.55,NW,315,0.0,2.0,82,0.00,,,0.00,meteohub,2013-01-11 09:49:00,
2013-01-11 04:54:00,25.7,20.7,30.55,NW,315,0.0,2.0,81,0.00,,,0.00,meteohub,2013-01-11 09:54:00,
2013-01-11 04:59:00,25.9,20.8,30.55,NW,315,1.0,2.0,81,0.00,,,0.00,meteohub,2013-01-11 09:59:00,
2013-01-11 05:04:00,25.9,20.5,30.55,NE,49,1.0,2.0,80,0.00,,,0.00,meteohub,2013-01-11 10:04:00,
2013-01-11 05:09:00,25.9,20.8,30.54,ENE,61,0.0,2.0,81,0.00,,,0.00,meteohub,2013-01-11 10:09:00,
2013-01-11 05:14:00,26.1,21.4,30.54,ESE,105,0.0,2.0,82,0.00,,,0.00,meteohub,2013-01-11 10:14:00,
2013-01-11 05:19:00,26.1,21.0,30.54,ESE,105,0.0,4.0,81,0.00,,,0.00,meteohub,2013-01-11 10:19:00,
2013-01-11 05:24:00,26.1,21.4,30.54,ESE,105,0.0,4.0,82,0.00,,,0.00,meteohub,2013-01-11 10:24:00,
2013-01-11 05:29:00,25.9,21.2,30.54,ESE,105,0.0,4.0,82,0.00,,,0.00,meteohub,2013-01-11 10:29:00,
2013-01-11 05:34:00,25.7,21.0,30.54,ESE,105,0.0,1.0,82,0.00,,,0.00,meteohub,2013-01-11 10:34:00,
2013-01-11 05:39:00,25.9,21.2,30.54,ESE,105,0.0,1.0,82,0.00,,,0.00,meteohub,2013-01-11 10:39:00,
2013-01-11 05:44:00,26.1,21.4,30.54,ESE,105,0.0,2.0,82,0.00,,,0.00,meteohub,2013-01-11 10:44:00,
2013-01-11 05:49:00,26.2,21.6,30.54,ESE,105,0.0,2.0,82,0.00,,,0.00,meteohub,2013-01-11 10:49:00,
2013-01-11 05:54:00,26.2,21.6,30.55,ESE,105,0.0,3.0,82,0.00,,,0.00,meteohub,2013-01-11 10:54:00,
2013-01-11 05:59:00,26.2,21.2,30.55,ESE,105,0.0,3.0,81,0.00,,,0.00,meteohub,2013-01-11 10:59:00,
2013-01-11 06:04:00,26.4,21.4,30.55,ESE,105,1.0,2.0,81,0.00,,,0.00,meteohub,2013-01-11 11:04:00,
2013-01-11 06:09:00,26.4,21.4,30.54,ESE,105,0.0,1.0,81,0.00,,,0.00,meteohub,2013-01-11 11:09:00,
2013-01-11 06:14:00,26.4,21.4,30.54,ESE,105,1.0,2.0,81,0.00,,,0.00,meteohub,2013-01-11 11:14:00,
2013-01-11 06:19:00,26.2,21.6,30.54,ESE,105,0.0,2.0,82,0.00,,,0.00,meteohub,2013-01-11 11:19:00,
2013-01-11 06:24:00,26.2,21.6,30.54,East,101,0.0,2.0,82,0.00,,,0.00,meteohub,2013-01-11 11:24:00,
2013-01-11 06:29:00,26.2,21.6,30.53,East,101,1.0,3.0,82,0.00,,,0.00,meteohub,2013-01-11 11:29:00,
2013-01-11 06:34:00,26.2,21.6,30.53,East,98,2.0,3.0,82,0.00,,,0.00,meteohub,2013-01-11 11:34:00,
2013-01-11 06:39:00,26.2,21.6,30.54,East,96,2.0,3.0,82,0.00,,,0.00,meteohub,2013-01-11 11:39:00,
2013-01-11 06:44:00,26.6,21.6,30.54,SE,124,0.0,3.0,81,0.00,,,0.00,meteohub,2013-01-11 11:44:00,
2013-01-11 06:50:00,26.8,21.4,30.54,SE,124,0.0,5.0,80,0.00,,,0.00,meteohub,2013-01-11 11:50:00,
2013-01-11 06:55:00,26.8,21.4,30.54,SE,124,1.0,5.0,80,0.00,,,0.00,meteohub,2013-01-11 11:55:00,
2013-01-11 07:00:00,26.8,21.4,30.53,SE,124,1.0,2.0,80,0.00,,,0.00,meteohub,2013-01-11 12:00:00,
2013-01-11 07:05:00,27.0,21.4,30.54,SE,124,1.0,3.0,79,0.00,,,0.00,meteohub,2013-01-11 12:05:00,
2013-01-11 07:10:00,27.3,21.7,30.53,SE,124,1.0,3.0,79,0.00,,,0.00,meteohub,2013-01-11 12:10:00,
2013-01-11 07:15:00,27.3,21.7,30.53,SE,124,0.0,3.0,79,0.00,,,0.00,meteohub,2013-01-11 12:15:00,
2013-01-11 07:20:00,27.5,21.9,30.53,SE,124,1.0,3.0,79,0.00,,,0.00,meteohub,2013-01-11 12:20:00,
2013-01-11 07:25:00,27.1,22.1,30.53,SE,124,1.0,3.0,81,0.00,,,0.00,meteohub,2013-01-11 12:25:00,
2013-01-11 07:30:00,26.8,22.3,30.54,SE,124,0.0,3.0,83,0.00,,,0.00,meteohub,2013-01-11 12:30:00,
2013-01-11 07:35:00,26.4,21.9,30.54,SE,124,0.0,2.0,83,0.00,,,0.00,meteohub,2013-01-11 12:35:00,
2013-01-11 07:40:00,26.6,21.6,30.54,SE,124,1.0,2.0,81,0.00,,,0.00,meteohub,2013-01-11 12:40:00,
2013-01-11 07:45:00,27.1,21.6,30.54,SE,124,0.0,2.0,79,0.00,,,0.00,meteohub,2013-01-11 12:45:00,
2013-01-11 07:50:00,27.7,21.7,30.54,SE,124,0.0,2.0,78,0.00,,,0.00,meteohub,2013-01-11 12:50:00,
2013-01-11 07:55:00,27.9,21.2,30.54,SE,124,1.0,2.0,76,0.00,,,0.00,meteohub,2013-01-11 12:55:00,
2013-01-11 08:00:00,28.0,21.4,30.54,SE,124,0.0,1.0,76,0.00,,,0.00,meteohub,2013-01-11 13:00:00,
2013-01-11 08:05:00,28.0,22.6,30.54,SE,124,0.0,1.0,80,0.00,,,0.00,meteohub,2013-01-11 13:05:00,
2013-01-11 08:10:00,27.9,22.5,30.54,SE,124,0.0,1.0,80,0.00,,,0.00,meteohub,2013-01-11 13:10:00,
2013-01-11 08:15:00,27.9,21.9,30.54,SE,124,0.0,1.0,78,0.00,,,0.00,meteohub,2013-01-11 13:15:00,
2013-01-11 08:20:00,28.2,21.6,30.53,SE,124,0.0,0.0,76,0.00,,,0.00,meteohub,2013-01-11 13:20:00,
2013-01-11 08:25:00,28.6,21.7,30.53,SE,124,0.0,0.0,75,0.00,,,0.00,meteohub,2013-01-11 13:25:00,
2013-01-11 08:30:00,28.9,21.4,30.53,SE,124,0.0,0.0,73,0.00,,,0.00,meteohub,2013-01-11 13:30:00,
2013-01-11 08:35:00,29.5,21.6,30.52,SE,124,0.0,1.0,72,0.00,,,0.00,meteohub,2013-01-11 13:35:00,
2013-01-11 08:40:00,29.7,21.4,30.51,SE,124,1.0,3.0,71,0.00,,,0.00,meteohub,2013-01-11 13:40:00,
2013-01-11 08:45:00,30.0,21.4,30.51,ESE,123,0.0,3.0,70,0.00,,,0.00,meteohub,2013-01-11 13:45:00,
2013-01-11 08:50:00,30.4,21.4,30.51,ESE,108,0.0,5.0,69,0.00,,,0.00,meteohub,2013-01-11 13:50:00,
2013-01-11 08:55:00,30.7,21.0,30.51,SE,138,1.0,5.0,67,0.00,,,0.00,meteohub,2013-01-11 13:55:00,
2013-01-11 09:00:00,31.1,21.0,30.50,East,101,0.0,5.0,66,0.00,,,0.00,meteohub,2013-01-11 14:00:00,
2013-01-11 09:05:00,31.5,20.7,30.50,SE,144,1.0,5.0,64,0.00,,,0.00,meteohub,2013-01-11 14:05:00,
2013-01-11 09:10:00,31.8,20.7,30.50,East,96,0.0,5.0,63,0.00,,,0.00,meteohub,2013-01-11 14:10:00,
2013-01-11 09:15:00,32.4,21.6,30.49,SE,132,0.0,5.0,64,0.00,,,0.00,meteohub,2013-01-11 14:15:00,
2013-01-11 09:20:00,32.5,19.8,30.49,SE,140,0.0,7.0,59,0.00,,,0.00,meteohub,2013-01-11 14:20:00,
2013-01-11 09:25:00,32.9,20.1,30.49,ESE,104,3.0,7.0,59,0.00,,,0.00,meteohub,2013-01-11 14:25:00,
2013-01-11 09:30:00,33.1,19.9,30.49,SE,124,2.0,7.0,58,0.00,,,0.00,meteohub,2013-01-11 14:30:00,
2013-01-11 09:35:00,33.4,19.8,30.49,East,100,0.0,4.0,57,0.00,,,0.00,meteohub,2013-01-11 14:35:00,
2013-01-11 09:40:00,33.6,20.5,30.49,SSE,159,1.0,4.0,58,0.00,,,0.00,meteohub,2013-01-11 14:40:00,
2013-01-11 09:45:00,34.0,19.6,30.49,SE,139,0.0,5.0,55,0.00,,,0.00,meteohub,2013-01-11 14:45:00,
2013-01-11 09:50:00,34.2,20.8,30.49,South,182,4.0,5.0,58,0.00,,,0.00,meteohub,2013-01-11 14:50:00,
2013-01-11 09:56:00,34.3,19.0,30.49,SSE,160,3.0,6.0,53,0.00,,,0.00,meteohub,2013-01-11 14:56:00,
2013-01-11 10:00:00,34.5,20.5,30.48,ESE,109,3.0,6.0,56,0.00,,,0.00,meteohub,2013-01-11 15:00:00,
2013-01-11 10:05:00,34.5,20.5,30.48,SE,126,2.0,6.0,56,0.00,,,0.00,meteohub,2013-01-11 15:05:00,
2013-01-11 10:11:00,34.3,21.0,30.48,ESE,115,2.0,6.0,58,0.00,,,0.00,meteohub,2013-01-11 15:11:00,
2013-01-11 10:16:00,34.3,21.0,30.48,ESE,115,1.0,5.0,58,0.00,,,0.00,meteohub,2013-01-11 15:16:00,
2013-01-11 10:21:00,34.3,19.8,30.48,ESE,115,2.0,3.0,55,0.00,,,0.00,meteohub,2013-01-11 15:21:00,
2013-01-11 10:26:00,34.3,20.3,30.47,SSE,148,0.0,7.0,56,0.00,,,0.00,meteohub,2013-01-11 15:26:00,
2013-01-11 10:31:00,34.3,21.6,30.47,SE,146,4.0,7.0,59,0.00,,,0.00,meteohub,2013-01-11 15:31:00,
2013-01-11 10:36:00,34.3,19.8,30.47,ESE,115,0.0,7.0,55,0.00,,,0.00,meteohub,2013-01-11 15:36:00,
2013-01-11 10:41:00,34.3,20.3,30.46,East,88,1.0,6.0,56,0.00,,,0.00,meteohub,2013-01-11 15:41:00,
2013-01-11 10:46:00,34.3,21.0,30.46,SE,145,1.0,6.0,58,0.00,,,0.00,meteohub,2013-01-11 15:46:00,
2013-01-11 10:51:00,34.5,19.6,30.46,SSE,147,5.0,6.0,54,0.00,,,0.00,meteohub,2013-01-11 15:51:00,
2013-01-11 10:56:00,34.7,19.8,30.46,SE,140,0.0,6.0,54,0.00,,,0.00,meteohub,2013-01-11 15:56:00,
2013-01-11 11:01:00,34.9,20.8,30.47,South,175,1.0,6.0,56,0.00,,,0.00,meteohub,2013-01-11 16:01:00,
2013-01-11 11:06:00,34.7,21.0,30.46,South,175,2.0,5.0,57,0.00,,,0.00,meteohub,2013-01-11 16:06:00,
2013-01-11 11:11:00,34.7,19.8,30.46,South,175,0.0,3.0,54,0.00,,,0.00,meteohub,2013-01-11 16:11:00,
2013-01-11 11:16:00,34.9,21.2,30.46,South,175,0.0,2.0,57,0.00,,,0.00,meteohub,2013-01-11 16:16:00,
2013-01-11 11:21:00,35.1,21.0,30.45,South,175,0.0,2.0,56,0.00,,,0.00,meteohub,2013-01-11 16:21:00,
2013-01-11 11:26:00,35.2,20.3,30.45,South,175,1.0,2.0,54,0.00,,,0.00,meteohub,2013-01-11 16:26:00,
2013-01-11 11:31:00,35.4,19.0,30.45,SSE,164,2.0,4.0,51,0.00,,,0.00,meteohub,2013-01-11 16:31:00,
2013-01-11 11:36:00,35.4,19.6,30.45,South,180,3.0,6.0,52,0.00,,,0.00,meteohub,2013-01-11 16:36:00,
2013-01-11 11:41:00,35.4,20.5,30.45,ESE,117,0.0,7.0,54,0.00,,,0.00,meteohub,2013-01-11 16:41:00,
2013-01-11 11:46:00,35.4,20.5,30.45,SE,146,1.0,7.0,54,0.00,,,0.00,meteohub,2013-01-11 16:46:00,
2013-01-11 11:51:00,35.4,19.9,30.44,SSE,152,4.0,5.0,53,0.00,,,0.00,meteohub,2013-01-11 16:51:00,
2013-01-11 11:56:00,35.4,20.8,30.44,SE,127,4.0,7.0,55,0.00,,,0.00,meteohub,2013-01-11 16:56:00,
2013-01-11 12:01:00,35.4,21.2,30.43,SSE,150,3.0,10.0,56,0.00,,,0.00,meteohub,2013-01-11 17:01:00,
2013-01-11 12:06:00,35.6,21.0,30.43,SE,144,10.0,10.0,55,0.00,,,0.00,meteohub,2013-01-11 17:06:00,
2013-01-11 12:11:00,36.0,21.4,30.42,SSE,167,4.0,10.0,55,0.00,,,0.00,meteohub,2013-01-11 17:11:00,
2013-01-11 12:16:00,36.0,21.4,30.41,SE,134,3.0,10.0,55,0.00,,,0.00,meteohub,2013-01-11 17:16:00,
2013-01-11 12:21:00,36.0,20.5,30.41,SSE,151,10.0,10.0,53,0.00,,,0.00,meteohub,2013-01-11 17:21:00,
2013-01-11 12:26:00,36.0,21.0,30.41,South,173,2.0,11.0,54,0.00,,,0.00,meteohub,2013-01-11 17:26:00,
2013-01-11 12:31:00,36.1,20.3,30.41,East,99,3.0,11.0,52,0.00,,,0.00,meteohub,2013-01-11 17:31:00,
2013-01-11 12:36:00,36.3,19.0,30.41,SW,229,4.0,11.0,49,0.00,,,0.00,meteohub,2013-01-11 17:36:00,
2013-01-11 12:41:00,36.5,19.2,30.40,SSE,151,1.0,7.0,49,0.00,,,0.00,meteohub,2013-01-11 17:41:00,
2013-01-11 12:46:00,36.7,19.8,30.40,ESE,120,5.0,9.0,50,0.00,,,0.00,meteohub,2013-01-11 17:46:00,
2013-01-11 12:51:00,36.9,19.9,30.40,ESE,105,2.0,12.0,50,0.00,,,0.00,meteohub,2013-01-11 17:51:00,
2013-01-11 12:56:00,36.9,20.8,30.38,East,98,3.0,12.0,52,0.00,,,0.00,meteohub,2013-01-11 17:56:00,
2013-01-11 13:01:00,36.5,19.6,30.38,ESE,109,5.0,12.0,50,0.00,,,0.00,meteohub,2013-01-11 18:01:00,
2013-01-11 13:06:00,36.5,20.5,30.38,ESE,119,4.0,8.0,52,0.00,,,0.00,meteohub,2013-01-11 18:06:00,
2013-01-11 13:11:00,36.3,19.4,30.38,South,185,1.0,10.0,50,0.00,,,0.00,meteohub,2013-01-11 18:11:00,
2013-01-11 13:16:00,36.7,20.7,30.37,SE,145,3.0,11.0,52,0.00,,,0.00,meteohub,2013-01-11 18:16:00,
2013-01-11 13:21:00,36.7,20.7,30.38,SSE,149,2.0,11.0,52,0.00,,,0.00,meteohub,2013-01-11 18:21:00,
2013-01-11 13:26:00,36.7,20.7,30.37,ESE,107,2.0,10.0,52,0.00,,,0.00,meteohub,2013-01-11 18:26:00,
2013-01-11 13:31:00,36.9,21.7,30.38,ENE,75,1.0,9.0,54,0.00,,,0.00,meteohub,2013-01-11 18:31:00,
2013-01-11 13:36:00,36.9,22.6,30.38,WNW,301,2.0,7.0,56,0.00,,,0.00,meteohub,2013-01-11 18:36:00,
2013-01-11 13:41:00,37.2,21.7,30.38,ESE,121,2.0,7.0,53,0.00,,,0.00,meteohub,2013-01-11 18:41:00,
2013-01-11 13:46:00,37.2,20.8,30.37,ESE,110,1.0,7.0,51,0.00,,,0.00,meteohub,2013-01-11 18:46:00,
2013-01-11 13:51:00,37.2,20.3,30.37,East,84,2.0,7.0,50,0.00,,,0.00,meteohub,2013-01-11 18:51:00,
2013-01-11 13:56:00,37.0,21.6,30.37,ESE,120,0.0,7.0,53,0.00,,,0.00,meteohub,2013-01-11 18:56:00,
2013-01-11 14:01:00,36.9,20.5,30.36,ESE,117,2.0,6.0,51,0.00,,,0.00,meteohub,2013-01-11 19:01:00,
2013-01-11 14:06:00,36.9,21.4,30.36,ESE,104,2.0,8.0,53,0.00,,,0.00,meteohub,2013-01-11 19:06:00,
2013-01-11 14:11:00,36.7,21.2,30.36,SE,143,5.0,8.0,53,0.00,,,0.00,meteohub,2013-01-11 19:11:00,
2013-01-11 14:16:00,36.7,20.7,30.35,SSE,147,2.0,7.0,52,0.00,,,0.00,meteohub,2013-01-11 19:16:00,
2013-01-11 14:21:00,36.7,21.6,30.35,South,185,6.0,9.0,54,0.00,,,0.00,meteohub,2013-01-11 19:21:00,
2013-01-11 14:26:00,36.5,21.4,30.35,SE,138,3.0,9.0,54,0.00,,,0.00,meteohub,2013-01-11 19:26:00,
2013-01-11 14:32:00,36.3,21.2,30.35,East,82,3.0,9.0,54,0.00,,,0.00,meteohub,2013-01-11 19:32:00,
2013-01-11 14:37:00,36.5,21.4,30.34,SE,137,3.0,8.0,54,0.00,,,0.00,meteohub,2013-01-11 19:37:00,
2013-01-11 14:42:00,36.3,21.7,30.33,SSE,157,8.0,11.0,55,0.00,,,0.00,meteohub,2013-01-11 19:42:00,
2013-01-11 14:47:00,36.3,21.2,30.34,South,183,3.0,11.0,54,0.00,,,0.00,meteohub,2013-01-11 19:47:00,
2013-01-11 14:52:00,36.3,21.2,30.34,ESE,114,7.0,10.0,54,0.00,,,0.00,meteohub,2013-01-11 19:52:00,
2013-01-11 14:57:00,36.5,20.5,30.33,East,88,0.0,11.0,52,0.00,,,0.00,meteohub,2013-01-11 19:57:00,
2013-01-11 15:02:00,36.3,22.5,30.34,ESE,105,3.0,11.0,57,0.00,,,0.00,meteohub,2013-01-11 20:02:00,
2013-01-11 15:07:00,36.1,21.6,30.34,South,176,2.0,11.0,55,0.00,,,0.00,meteohub,2013-01-11 20:07:00,
2013-01-11 15:12:00,36.7,21.6,30.34,SSW,194,2.0,11.0,54,0.00,,,0.00,meteohub,2013-01-11 20:12:00,
2013-01-11 15:17:00,37.0,21.6,30.35,SSE,153,1.0,8.0,53,0.00,,,0.00,meteohub,2013-01-11 20:17:00,
2013-01-11 15:22:00,37.0,22.8,30.35,SSE,155,0.0,8.0,56,0.00,,,0.00,meteohub,2013-01-11 20:22:00,
2013-01-11 15:27:00,37.0,22.8,30.35,SSE,155,0.0,5.0,56,0.00,,,0.00,meteohub,2013-01-11 20:27:00,
2013-01-11 15:32:00,36.9,27.3,30.35,SSE,155,0.0,5.0,68,0.00,,,0.00,meteohub,2013-01-11 20:32:00,
2013-01-11 15:37:00,36.3,24.6,30.35,SSE,155,0.0,1.0,62,0.00,,,0.00,meteohub,2013-01-11 20:37:00,
2013-01-11 15:42:00,36.3,23.0,30.35,SSE,155,0.0,1.0,58,0.00,,,0.00,meteohub,2013-01-11 20:42:00,
2013-01-11 15:47:00,36.3,23.7,30.34,SSE,155,1.0,1.0,60,0.00,,,0.00,meteohub,2013-01-11 20:47:00,
2013-01-11 15:52:00,36.3,24.1,30.34,East,101,1.0,2.0,61,0.00,,,0.00,meteohub,2013-01-11 20:52:00,
2013-01-11 15:57:00,36.1,25.5,30.34,ESE,112,1.0,3.0,65,0.01,,,0.01,meteohub,2013-01-11 20:57:00,
2013-01-11 16:02:00,35.6,25.7,30.34,East,93,1.0,3.0,67,0.01,,,0.01,meteohub,2013-01-11 21:02:00,
2013-01-11 16:07:00,35.1,25.2,30.34,South,191,1.0,3.0,67,0.01,,,0.01,meteohub,2013-01-11 21:07:00,
2013-01-11 16:12:00,34.7,25.5,30.33,SSE,148,2.0,6.0,69,0.01,,,0.01,meteohub,2013-01-11 21:12:00,
2013-01-11 16:17:00,34.3,26.6,30.33,ESE,106,2.0,6.0,73,0.01,,,0.01,meteohub,2013-01-11 21:17:00,
2013-01-11 16:22:00,34.0,26.6,30.33,East,89,1.0,6.0,74,0.01,,,0.01,meteohub,2013-01-11 21:22:00,
2013-01-11 16:27:00,33.6,27.9,30.33,East,98,0.0,5.0,79,0.02,,,0.02,meteohub,2013-01-11 21:27:00,
2013-01-11 16:32:00,33.3,27.1,30.33,ESE,121,1.0,5.0,78,0.03,,,0.03,meteohub,2013-01-11 21:32:00,
2013-01-11 16:37:00,33.3,27.5,30.32,SSE,157,2.0,5.0,79,0.03,,,0.03,meteohub,2013-01-11 21:37:00,
2013-01-11 16:42:00,33.1,28.2,30.32,SSE,166,3.0,8.0,82,0.04,,,0.04,meteohub,2013-01-11 21:42:00,
2013-01-11 16:47:00,32.7,28.2,30.31,SE,131,1.0,8.0,83,0.04,,,0.04,meteohub,2013-01-11 21:47:00,
2013-01-11 16:52:00,32.7,28.2,30.31,East,101,5.0,8.0,83,0.05,,,0.05,meteohub,2013-01-11 21:52:00,
2013-01-11 16:57:00,32.7,28.2,30.31,SSE,167,1.0,8.0,83,0.04,,,0.05,meteohub,2013-01-11 21:57:00,
2013-01-11 17:02:00,33.1,28.8,30.30,East,85,2.0,9.0,84,0.04,,,0.05,meteohub,2013-01-11 22:02:00,
2013-01-11 17:07:00,32.7,28.9,30.30,South,174,0.0,9.0,86,0.04,,,0.05,meteohub,2013-01-11 22:07:00,
2013-01-11 17:12:00,32.7,29.3,30.30,East,94,2.0,9.0,87,0.04,,,0.05,meteohub,2013-01-11 22:12:00,
2013-01-11 17:17:00,32.7,29.3,30.30,ENE,63,3.0,6.0,87,0.04,,,0.05,meteohub,2013-01-11 22:17:00,
2013-01-11 17:22:00,32.9,29.5,30.29,SE,126,5.0,5.0,87,0.04,,,0.05,meteohub,2013-01-11 22:22:00,
2013-01-11 17:27:00,33.1,29.8,30.28,SE,138,6.0,9.0,88,0.03,,,0.05,meteohub,2013-01-11 22:27:00,
2013-01-11 17:32:00,33.3,30.0,30.28,SE,127,2.0,9.0,88,0.02,,,0.05,meteohub,2013-01-11 22:32:00,
2013-01-11 17:37:00,33.3,30.0,30.29,ESE,105,2.0,9.0,88,0.02,,,0.05,meteohub,2013-01-11 22:37:00,
2013-01-11 17:42:00,33.3,30.4,30.29,East,80,2.0,7.0,89,0.01,,,0.05,meteohub,2013-01-11 22:42:00,
2013-01-11 17:47:00,33.3,30.6,30.29,East,80,1.0,7.0,90,0.01,,,0.05,meteohub,2013-01-11 22:47:00,
2013-01-11 17:52:00,33.4,30.7,30.29,North,355,0.0,5.0,90,0.00,,,0.05,meteohub,2013-01-11 22:52:00,
2013-01-11 17:57:00,33.4,31.1,30.29,ENE,74,0.0,3.0,91,0.00,,,0.05,meteohub,2013-01-11 22:57:00,
2013-01-11 18:02:00,33.6,31.3,30.29,ENE,74,2.0,3.0,91,0.00,,,0.05,meteohub,2013-01-11 23:02:00,
2013-01-11 18:07:00,33.6,31.5,30.29,East,79,0.0,3.0,92,0.00,,,0.05,meteohub,2013-01-11 23:07:00,
2013-01-11 18:12:00,33.8,31.6,30.29,NNE,17,2.0,3.0,92,0.00,,,0.05,meteohub,2013-01-11 23:12:00,
2013-01-11 18:17:00,33.8,31.6,30.29,ENE,65,0.0,3.0,92,0.00,,,0.05,meteohub,2013-01-11 23:17:00,
2013-01-11 18:22:00,34.0,31.8,30.29,East,81,1.0,3.0,92,0.00,,,0.05,meteohub,2013-01-11 23:22:00,
2013-01-11 18:27:00,34.2,31.8,30.28,ESE,113,1.0,4.0,91,0.00,,,0.05,meteohub,2013-01-11 23:27:00,
2013-01-11 18:32:00,34.5,32.2,30.28,East,86,5.0,8.0,91,0.00,,,0.05,meteohub,2013-01-11 23:32:00,
2013-01-11 18:37:00,34.5,31.8,30.28,ESE,121,0.0,8.0,90,0.01,,,0.06,meteohub,2013-01-11 23:37:00,
2013-01-11 18:42:00,34.7,32.0,30.28,SW,230,0.0,9.0,90,0.01,,,0.06,meteohub,2013-01-11 23:42:00,
2013-01-11 18:47:00,35.2,32.5,30.28,SSE,163,3.0,9.0,90,0.01,,,0.06,meteohub,2013-01-11 23:47:00,
2013-01-11 18:52:00,35.2,32.5,30.28,SSE,152,4.0,7.0,90,0.01,,,0.06,meteohub,2013-01-11 23:52:00,
2013-01-11 18:57:00,35.2,32.5,30.27,South,181,1.0,8.0,90,0.01,,,0.06,meteohub,2013-01-11 23:57:00,
2013-01-11 19:02:00,35.4,32.7,30.27,South,187,2.0,8.0,90,0.01,,,0.06,meteohub,2013-01-12 00:02:00,
2013-01-11 19:07:00,35.2,32.5,30.27,SE,138,6.0,8.0,90,0.01,,,0.00,meteohub,2013-01-12 00:07:00,
2013-01-11 19:12:00,35.1,32.7,30.26,SE,142,5.0,13.0,91,0.01,,,0.00,meteohub,2013-01-12 00:12:00,
2013-01-11 19:17:00,35.2,32.9,30.25,SE,131,8.0,13.0,91,0.01,,,0.00,meteohub,2013-01-12 00:17:00,
2013-01-11 19:22:00,35.6,32.9,30.26,SE,138,3.0,14.0,90,0.02,,,0.01,meteohub,2013-01-12 00:22:00,
2013-01-11 19:28:00,35.4,32.7,30.26,SE,132,3.0,15.0,90,0.02,,,0.01,meteohub,2013-01-12 00:28:00,
2013-01-11 19:33:00,35.4,32.7,30.25,ESE,102,10.0,15.0,90,0.02,,,0.01,meteohub,2013-01-12 00:33:00,
2013-01-11 19:38:00,36.0,33.3,30.25,SE,128,3.0,11.0,90,0.01,,,0.01,meteohub,2013-01-12 00:38:00,
2013-01-11 19:43:00,35.8,33.1,30.26,SSW,194,12.0,12.0,90,0.01,,,0.01,meteohub,2013-01-12 00:43:00,
2013-01-11 19:48:00,36.0,33.3,30.25,ESE,116,7.0,12.0,90,0.01,,,0.01,meteohub,2013-01-12 00:48:00,
2013-01-11 19:53:00,35.6,33.3,30.25,East,92,3.0,13.0,91,0.01,,,0.01,meteohub,2013-01-12 00:53:00,
2013-01-11 19:58:00,35.4,33.1,30.26,ESE,105,2.0,13.0,91,0.01,,,0.01,meteohub,2013-01-12 00:58:00,
2013-01-11 20:03:00,36.0,33.8,30.26,ESE,119,1.0,10.0,92,0.01,,,0.01,meteohub,2013-01-12 01:03:00,
2013-01-11 20:08:00,36.3,34.0,30.26,ESE,116,4.0,8.0,91,0.01,,,0.01,meteohub,2013-01-12 01:08:00,
2013-01-11 20:13:00,36.5,34.2,30.25,South,182,3.0,7.0,91,0.01,,,0.01,meteohub,2013-01-12 01:13:00,
2013-01-11 20:18:00,36.9,34.2,30.25,SE,139,5.0,7.0,90,0.01,,,0.01,meteohub,2013-01-12 01:18:00,
2013-01-11 20:23:00,36.9,34.5,30.25,ESE,114,5.0,7.0,91,0.00,,,0.01,meteohub,2013-01-12 01:23:00,
2013-01-11 20:28:00,36.5,33.8,30.24,ESE,116,3.0,8.0,90,0.00,,,0.01,meteohub,2013-01-12 01:28:00,
2013-01-11 20:33:00,36.3,34.0,30.24,SE,127,4.0,8.0,91,0.00,,,0.01,meteohub,2013-01-12 01:33:00,
2013-01-11 20:38:00,37.2,35.1,30.24,SE,144,4.0,8.0,92,0.00,,,0.01,meteohub,2013-01-12 01:38:00,
2013-01-11 20:43:00,37.8,34.9,30.24,WSW,240,3.0,18.0,89,0.00,,,0.01,meteohub,2013-01-12 01:43:00,
2013-01-11 20:48:00,37.2,34.5,30.24,SE,135,2.0,18.0,90,0.00,,,0.01,meteohub,2013-01-12 01:48:00,
2013-01-11 20:53:00,37.0,34.3,30.24,SE,144,3.0,18.0,90,0.00,,,0.01,meteohub,2013-01-12 01:53:00,
2013-01-11 20:58:00,37.0,34.9,30.25,SSE,165,5.0,10.0,92,0.00,,,0.01,meteohub,2013-01-12 01:58:00,
2013-01-11 21:03:00,36.9,34.5,30.24,SE,144,2.0,11.0,91,0.00,,,0.01,meteohub,2013-01-12 02:03:00,
2013-01-11 21:08:00,36.7,34.3,30.25,East,98,3.0,11.0,91,0.00,,,0.01,meteohub,2013-01-12 02:08:00,
2013-01-11 21:13:00,36.3,34.0,30.25,ESE,119,0.0,11.0,91,0.00,,,0.01,meteohub,2013-01-12 02:13:00,
2013-01-11 21:18:00,36.1,34.0,30.26,SE,124,0.0,7.0,92,0.00,,,0.01,meteohub,2013-01-12 02:18:00,
2013-01-11 21:23:00,36.0,33.8,30.26,SE,125,0.0,7.0,92,0.00,,,0.01,meteohub,2013-01-12 02:23:00,
2013-01-11 21:28:00,36.0,33.8,30.26,SE,125,0.0,5.0,92,0.00,,,0.01,meteohub,2013-01-12 02:28:00,
2013-01-11 21:34:00,36.0,34.2,30.27,SSE,163,0.0,2.0,93,0.00,,,0.01,meteohub,2013-01-12 02:34:00,
2013-01-11 21:39:00,36.0,34.2,30.27,SE,133,0.0,4.0,93,0.00,,,0.01,meteohub,2013-01-12 02:39:00,
2013-01-11 21:44:00,35.8,34.0,30.26,SE,133,0.0,4.0,93,0.00,,,0.01,meteohub,2013-01-12 02:44:00,
2013-01-11 21:49:00,35.8,34.0,30.26,SE,134,2.0,5.0,93,0.00,,,0.01,meteohub,2013-01-12 02:49:00,
2013-01-11 21:54:00,35.6,33.8,30.26,SE,134,0.0,5.0,93,0.00,,,0.01,meteohub,2013-01-12 02:54:00,
2013-01-11 21:59:00,35.6,33.8,30.26,SE,144,4.0,4.0,93,0.00,,,0.01,meteohub,2013-01-12 02:59:00,
2013-01-11 22:04:00,35.8,34.0,30.26,SW,217,2.0,5.0,93,0.00,,,0.01,meteohub,2013-01-12 03:04:00,
2013-01-11 22:09:00,36.0,34.2,30.26,SE,140,3.0,5.0,93,0.00,,,0.01,meteohub,2013-01-12 03:09:00,
2013-01-11 22:14:00,36.1,34.5,30.26,East,79,1.0,5.0,94,0.00,,,0.01,meteohub,2013-01-12 03:14:00,
2013-01-11 22:19:00,36.5,34.9,30.26,East,90,1.0,6.0,94,0.00,,,0.01,meteohub,2013-01-12 03:19:00,
2013-01-11 22:24:00,36.7,35.1,30.25,ESE,102,1.0,6.0,94,0.00,,,0.01,meteohub,2013-01-12 03:24:00,
2013-01-11 22:29:00,37.0,35.2,30.25,ESE,118,0.0,6.0,93,0.00,,,0.01,meteohub,2013-01-12 03:29:00,
2013-01-11 22:34:00,36.7,35.1,30.25,SE,126,1.0,6.0,94,0.00,,,0.01,meteohub,2013-01-12 03:34:00,
2013-01-11 22:39:00,36.7,35.1,30.25,ESE,109,4.0,6.0,94,0.00,,,0.01,meteohub,2013-01-12 03:39:00,
2013-01-11 22:44:00,36.7,35.4,30.25,SE,139,7.0,7.0,95,0.00,,,0.01,meteohub,2013-01-12 03:44:00,
2013-01-11 22:49:00,37.2,36.0,30.24,SSE,159,2.0,14.0,95,0.00,,,0.01,meteohub,2013-01-12 03:49:00,
2013-01-11 22:54:00,37.8,36.5,30.24,ESE,107,1.0,14.0,95,0.00,,,0.01,meteohub,2013-01-12 03:54:00,
2013-01-11 22:59:00,38.1,36.9,30.23,SSW,207,8.0,14.0,95,0.00,,,0.01,meteohub,2013-01-12 03:59:00,
2013-01-11 23:04:00,39.4,37.8,30.23,SSW,209,9.0,9.0,94,0.00,,,0.01,meteohub,2013-01-12 04:04:00,
2013-01-11 23:09:00,39.6,37.8,30.23,SW,217,8.0,12.0,93,0.00,,,0.01,meteohub,2013-01-12 04:09:00,
2013-01-11 23:14:00,39.9,37.8,30.23,SSW,211,10.0,12.0,92,0.00,,,0.01,meteohub,2013-01-12 04:14:00,
2013-01-11 23:19:00,39.9,37.8,30.23,SSW,196,2.0,12.0,92,0.00,,,0.01,meteohub,2013-01-12 04:19:00,
2013-01-11 23:24:00,40.3,38.1,30.23,WSW,255,5.0,13.0,92,0.00,,,0.01,meteohub,2013-01-12 04:24:00,
2013-01-11 23:29:00,40.5,38.1,30.23,South,189,5.0,15.0,91,0.00,,,0.01,meteohub,2013-01-12 04:29:00,
2013-01-11 23:34:00,40.5,38.1,30.23,WSW,240,3.0,15.0,91,0.00,,,0.01,meteohub,2013-01-12 04:34:00,
2013-01-11 23:39:00,40.5,38.1,30.23,West,266,0.0,15.0,91,0.00,,,0.01,meteohub,2013-01-12 04:39:00,
2013-01-11 23:44:00,40.3,37.9,30.23,SE,143,0.0,12.0,91,0.00,,,0.01,meteohub,2013-01-12 04:44:00,
2013-01-11 23:49:00,39.9,37.6,30.23,SE,142,1.0,12.0,91,0.00,,,0.01,meteohub,2013-01-12 04:49:00,
2013-01-11 23:54:00,39.7,37.4,30.23,SW,231,0.0,4.0,91,0.00,,,0.01,meteohub,2013-01-12 04:54:00,
2013-01-11 23:59:00,39.7,37.9,30.23,West,264,0.0,4.0,93,0.00,,,0.01,meteohub,2013-01-12 04:59:00,